Terminal Aerodrome Forecast
Issued by NWS Wilmington, OH

Home | Current Version | Previous Version | Text Only | Print | Product List | Glossary On
Versions: 1 2 3 4 5 6 7 8 9 10 11 12 13 14 15 16 17 18 19 20 21 22 23 24
121
FTUS41 KILN 261130
TAFCVG
TAF
KCVG 261130Z 2612/2718 17006KT P6SM -RA SCT011 BKN045 OVC090
      TEMPO 2612/2616 5SM SHRA OVC011
     FM261600 18011KT P6SM -SHRA VCTS OVC035CB
      TEMPO 2617/2621 3SM SHRA OVC025
     FM262100 20008KT P6SM VCSH BKN050
     FM270400 23006KT P6SM BKN070
     FM270900 VRB03KT P6SM BKN035
     FM271200 VRB03KT P6SM BKN018
     FM271400 20004KT P6SM BKN035=

USA.gov is the U.S. government's official web portal to all federal, state and local government web resources and services.